sensor_id;sensor_type;location;lat;lon;timestamp;pressure;altitude;pressure_sealevel;temperature;humidity
35519;BME280;21627;48.216;16.482;2023-02-19T00:02:26;99961.09;;;11.64;91.50
35519;BME280;21627;48.216;16.482;2023-02-19T00:04:53;99954.16;;;11.76;91.99
35519;BME280;21627;48.216;16.482;2023-02-19T00:07:22;99970.59;;;11.70;92.33
35519;BME280;21627;48.216;16.482;2023-02-19T00:09:49;99980.97;;;11.62;93.48
35519;BME280;21627;48.216;16.482;2023-02-19T00:12:17;99980.06;;;11.59;94.68
35519;BME280;21627;48.216;16.482;2023-02-19T00:14:44;99978.38;;;11.62;94.07
35519;BME280;21627;48.216;16.482;2023-02-19T00:17:11;99961.97;;;11.53;95.09
35519;BME280;21627;48.216;16.482;2023-02-19T00:19:38;99971.47;;;11.51;95.41
35519;BME280;21627;48.216;16.482;2023-02-19T00:22:06;99971.47;;;11.47;95.74
35519;BME280;21627;48.216;16.482;2023-02-19T00:24:33;99972.34;;;11.45;95.91
35519;BME280;21627;48.216;16.482;2023-02-19T00:27:00;99967.16;;;11.45;96.19
35519;BME280;21627;48.216;16.482;2023-02-19T00:29:27;99974.06;;;11.52;96.24
35519;BME280;21627;48.216;16.482;2023-02-19T00:31:55;99982.69;;;11.46;96.25
35519;BME280;21627;48.216;16.482;2023-02-19T00:34:22;99982.69;;;11.42;96.67
35519;BME280;21627;48.216;16.482;2023-02-19T00:36:49;99990.44;;;11.43;97.33
35519;BME280;21627;48.216;16.482;2023-02-19T00:39:16;99987.00;;;11.40;97.06
35519;BME280;21627;48.216;16.482;2023-02-19T00:41:44;99980.94;;;11.44;97.01
35519;BME280;21627;48.216;16.482;2023-02-19T00:44:16;99979.22;;;11.38;97.61
35519;BME280;21627;48.216;16.482;2023-02-19T00:46:46;99986.13;;;11.36;98.22
35519;BME280;21627;48.216;16.482;2023-02-19T00:49:20;99980.97;;;11.27;98.33
35519;BME280;21627;48.216;16.482;2023-02-19T00:51:50;99985.25;;;11.23;98.35
35519;BME280;21627;48.216;16.482;2023-02-19T00:54:18;99985.28;;;11.26;98.90
35519;BME280;21627;48.216;16.482;2023-02-19T00:56:45;99981.81;;;11.23;98.95
35519;BME280;21627;48.216;16.482;2023-02-19T00:59:12;99984.41;;;11.24;98.76
35519;BME280;21627;48.216;16.482;2023-02-19T01:01:43;99994.75;;;11.20;99.53
35519;BME280;21627;48.216;16.482;2023-02-19T01:04:12;99977.50;;;11.14;99.76
35519;BME280;21627;48.216;16.482;2023-02-19T01:06:40;99977.47;;;11.13;100.00
35519;BME280;21627;48.216;16.482;2023-02-19T01:09:08;99980.06;;;11.08;99.71
35519;BME280;21627;48.216;16.482;2023-02-19T01:11:35;99977.47;;;11.11;99.86
35519;BME280;21627;48.216;16.482;2023-02-19T01:14:03;99976.63;;;11.20;99.54
35519;BME280;21627;48.216;16.482;2023-02-19T01:16:31;99978.34;;;11.13;99.70
35519;BME280;21627;48.216;16.482;2023-02-19T01:18:58;99983.53;;;11.12;99.82
35519;BME280;21627;48.216;16.482;2023-02-19T01:21:28;99977.50;;;11.34;95.72
35519;BME280;21627;48.216;16.482;2023-02-19T01:23:56;99968.00;;;11.27;96.16
35519;BME280;21627;48.216;16.482;2023-02-19T01:26:28;99970.59;;;11.21;96.60
35519;BME280;21627;48.216;16.482;2023-02-19T01:29:00;99961.09;;;11.34;95.70
35519;BME280;21627;48.216;16.482;2023-02-19T01:31:29;99967.16;;;11.34;95.57
35519;BME280;21627;48.216;16.482;2023-02-19T01:33:59;99955.91;;;11.31;95.28
35519;BME280;21627;48.216;16.482;2023-02-19T01:36:27;99941.25;;;11.25;95.67
35519;BME280;21627;48.216;16.482;2023-02-19T01:39:00;99955.06;;;11.29;95.83
35519;BME280;21627;48.216;16.482;2023-02-19T01:41:34;99958.50;;;11.26;95.33
35519;BME280;21627;48.216;16.482;2023-02-19T01:46:54;99930.03;;;11.18;95.87
35519;BME280;21627;48.216;16.482;2023-02-19T01:49:28;99937.81;;;11.15;96.62
35519;BME280;21627;48.216;16.482;2023-02-19T01:52:25;99938.66;;;11.20;96.72
35519;BME280;21627;48.216;16.482;2023-02-19T01:54:54;99933.50;;;11.13;97.12
35519;BME280;21627;48.216;16.482;2023-02-19T01:57:29;99930.03;;;11.15;97.02
35519;BME280;21627;48.216;16.482;2023-02-19T02:00:05;99911.06;;;11.15;95.68
35519;BME280;21627;48.216;16.482;2023-02-19T02:02:34;99933.50;;;11.36;94.80
35519;BME280;21627;48.216;16.482;2023-02-19T02:05:02;99919.66;;;11.41;93.81
35519;BME280;21627;48.216;16.482;2023-02-19T02:07:29;99904.16;;;11.34;93.60
35519;BME280;21627;48.216;16.482;2023-02-19T02:10:15;99922.25;;;11.54;93.12
35519;BME280;21627;48.216;16.482;2023-02-19T02:12:55;99917.09;;;11.51;93.10
35519;BME280;21627;48.216;16.482;2023-02-19T02:15:27;99900.69;;;11.53;92.95
35519;BME280;21627;48.216;16.482;2023-02-19T02:18:07;99898.97;;;11.57;92.69
35519;BME280;21627;48.216;16.482;2023-02-19T02:35:56;99895.53;;;11.42;93.78
35519;BME280;21627;48.216;16.482;2023-02-19T02:38:28;99902.41;;;11.54;93.37
35519;BME280;21627;48.216;16.482;2023-02-19T02:40:57;99891.22;;;11.49;93.31
35519;BME280;21627;48.216;16.482;2023-02-19T02:43:26;99889.50;;;11.46;93.76
35519;BME280;21627;48.216;16.482;2023-02-19T02:45:53;99898.97;;;11.49;94.53
35519;BME280;21627;48.216;16.482;2023-02-19T02:48:44;99898.97;;;11.47;94.64
35519;BME280;21627;48.216;16.482;2023-02-19T02:54:18;99886.03;;;11.47;94.95
35519;BME280;21627;48.216;16.482;2023-02-19T02:57:09;99885.16;;;11.47;95.46
35519;BME280;21627;48.216;16.482;2023-02-19T02:59:41;99878.25;;;11.41;96.00
35519;BME280;21627;48.216;16.482;2023-02-19T03:02:16;99882.56;;;11.48;95.39
35519;BME280;21627;48.216;16.482;2023-02-19T03:05:05;99876.50;;;11.51;94.73
35519;BME280;21627;48.216;16.482;2023-02-19T03:08:21;99885.16;;;11.59;96.01
35519;BME280;21627;48.216;16.482;2023-02-19T03:11:03;99881.69;;;11.48;98.52
35519;BME280;21627;48.216;16.482;2023-02-19T03:14:21;99879.97;;;11.45;100.00
35519;BME280;21627;48.216;16.482;2023-02-19T03:17:28;99883.44;;;11.49;100.00
35519;BME280;21627;48.216;16.482;2023-02-19T03:20:21;99889.47;;;11.40;100.00
35519;BME280;21627;48.216;16.482;2023-02-19T03:22:51;99881.75;;;11.22;100.00
35519;BME280;21627;48.216;16.482;2023-02-19T03:25:23;99886.03;;;11.20;100.00
35519;BME280;21627;48.216;16.482;2023-02-19T03:28:12;99886.91;;;11.08;100.00
35519;BME280;21627;48.216;16.482;2023-02-19T03:30:50;99892.09;;;10.99;100.00
35519;BME280;21627;48.216;16.482;2023-02-19T03:33:23;99889.50;;;11.00;100.00
35519;BME280;21627;48.216;16.482;2023-02-19T03:35:56;99880.03;;;10.89;100.00
35519;BME280;21627;48.216;16.482;2023-02-19T03:38:51;99882.59;;;10.93;100.00
35519;BME280;21627;48.216;16.482;2023-02-19T03:41:50;99880.88;;;10.89;100.00
35519;BME280;21627;48.216;16.482;2023-02-19T03:53:12;99875.69;;;10.74;100.00
35519;BME280;21627;48.216;16.482;2023-02-19T03:58:54;99874.81;;;10.78;100.00
35519;BME280;21627;48.216;16.482;2023-02-19T04:01:34;99883.44;;;10.75;100.00
35519;BME280;21627;48.216;16.482;2023-02-19T04:04:38;99860.13;;;10.63;100.00
35519;BME280;21627;48.216;16.482;2023-02-19T04:07:08;99873.94;;;10.76;100.00
35519;BME280;21627;48.216;16.482;2023-02-19T04:09:41;99856.69;;;10.66;100.00
35519;BME280;21627;48.216;16.482;2023-02-19T04:12:10;99877.38;;;10.66;100.00
35519;BME280;21627;48.216;16.482;2023-02-19T04:15:02;99873.94;;;10.70;100.00
35519;BME280;21627;48.216;16.482;2023-02-19T04:17:37;99876.53;;;10.67;100.00
35519;BME280;21627;48.216;16.482;2023-02-19T04:20:09;99878.25;;;10.66;100.00
35519;BME280;21627;48.216;16.482;2023-02-19T04:22:39;99873.06;;;10.68;100.00
35519;BME280;21627;48.216;16.482;2023-02-19T04:25:08;99871.34;;;10.60;100.00
35519;BME280;21627;48.216;16.482;2023-02-19T04:27:38;99847.19;;;10.48;100.00
35519;BME280;21627;48.216;16.482;2023-02-19T04:30:09;99866.16;;;10.53;100.00
35519;BME280;21627;48.216;16.482;2023-02-19T04:32:37;99869.59;;;10.44;100.00
35519;BME280;21627;48.216;16.482;2023-02-19T04:35:05;99860.13;;;10.48;100.00
35519;BME280;21627;48.216;16.482;2023-02-19T04:37:32;99873.91;;;10.50;100.00
35519;BME280;21627;48.216;16.482;2023-02-19T04:39:59;99855.81;;;10.54;100.00
35519;BME280;21627;48.216;16.482;2023-02-19T04:42:27;99857.56;;;10.51;100.00
35519;BME280;21627;48.216;16.482;2023-02-19T04:44:54;99862.69;;;10.43;100.00
35519;BME280;21627;48.216;16.482;2023-02-19T04:47:21;99870.44;;;10.38;100.00
35519;BME280;21627;48.216;16.482;2023-02-19T04:49:51;99876.47;;;10.37;100.00
35519;BME280;21627;48.216;16.482;2023-02-19T04:52:18;99872.09;;;10.26;100.00
35519;BME280;21627;48.216;16.482;2023-02-19T04:54:46;99858.31;;;10.24;100.00
35519;BME280;21627;48.216;16.482;2023-02-19T04:57:13;99841.03;;;10.12;100.00
35519;BME280;21627;48.216;16.482;2023-02-19T04:59:40;99851.41;;;10.23;100.00
35519;BME280;21627;48.216;16.482;2023-02-19T05:02:07;99837.59;;;10.11;100.00
35519;BME280;21627;48.216;16.482;2023-02-19T05:04:34;99832.44;;;10.08;100.00
35519;BME280;21627;48.216;16.482;2023-02-19T05:07:01;99832.44;;;10.14;100.00
35519;BME280;21627;48.216;16.482;2023-02-19T05:09:29;99834.19;;;10.18;100.00
35519;BME280;21627;48.216;16.482;2023-02-19T05:11:56;99833.31;;;10.13;100.00
35519;BME280;21627;48.216;16.482;2023-02-19T05:14:23;99825.56;;;10.13;100.00
35519;BME280;21627;48.216;16.482;2023-02-19T05:16:50;99835.00;;;10.10;100.00
35519;BME280;21627;48.216;16.482;2023-02-19T05:19:20;99828.13;;;10.09;100.00
35519;BME280;21627;48.216;16.482;2023-02-19T05:21:47;99819.56;;;10.24;100.00
35519;BME280;21627;48.216;16.482;2023-02-19T05:24:15;99823.00;;;10.24;100.00
35519;BME280;21627;48.216;16.482;2023-02-19T05:26:42;99822.13;;;10.27;100.00
35519;BME280;21627;48.216;16.482;2023-02-19T05:29:11;99810.03;;;10.15;100.00
35519;BME280;21627;48.216;16.482;2023-02-19T05:31:38;99810.91;;;10.11;100.00
35519;BME280;21627;48.216;16.482;2023-02-19T05:34:05;99798.78;;;9.97;100.00
35519;BME280;21627;48.216;16.482;2023-02-19T05:36:33;99803.09;;;9.88;100.00
35519;BME280;21627;48.216;16.482;2023-02-19T05:39:00;99800.50;;;9.89;100.00
35519;BME280;21627;48.216;16.482;2023-02-19T05:41:29;99798.78;;;9.91;100.00
35519;BME280;21627;48.216;16.482;2023-02-19T05:43:57;99790.13;;;9.80;100.00
35519;BME280;21627;48.216;16.482;2023-02-19T05:46:27;99797.84;;;9.74;100.00
35519;BME280;21627;48.216;16.482;2023-02-19T05:48:56;99785.78;;;9.65;100.00
35519;BME280;21627;48.216;16.482;2023-02-19T05:51:27;99787.50;;;9.63;100.00
35519;BME280;21627;48.216;16.482;2023-02-19T05:53:55;99785.75;;;9.62;100.00
35519;BME280;21627;48.216;16.482;2023-02-19T05:56:37;99779.72;;;9.56;100.00
35519;BME280;21627;48.216;16.482;2023-02-19T05:59:25;99790.13;;;9.74;100.00
35519;BME280;21627;48.216;16.482;2023-02-19T06:01:54;99778.00;;;9.62;100.00
35519;BME280;21627;48.216;16.482;2023-02-19T06:04:21;99771.09;;;9.53;100.00
35519;BME280;21627;48.216;16.482;2023-02-19T06:06:49;99777.16;;;9.60;100.00
35519;BME280;21627;48.216;16.482;2023-02-19T06:09:17;99776.28;;;9.61;100.00
35519;BME280;21627;48.216;16.482;2023-02-19T06:11:44;99779.72;;;9.52;100.00
35519;BME280;21627;48.216;16.482;2023-02-19T06:14:12;99777.97;;;9.53;100.00
35519;BME280;21627;48.216;16.482;2023-02-19T06:16:40;99759.00;;;9.43;100.00
35519;BME280;21627;48.216;16.482;2023-02-19T06:19:07;99772.81;;;9.50;100.00
35519;BME280;21627;48.216;16.482;2023-02-19T06:21:35;99783.13;;;9.50;100.00
35519;BME280;21627;48.216;16.482;2023-02-19T06:24:07;99767.63;;;9.45;100.00
35519;BME280;21627;48.216;16.482;2023-02-19T06:26:35;99782.25;;;9.48;100.00
35519;BME280;21627;48.216;16.482;2023-02-19T06:29:02;99769.31;;;9.45;100.00
35519;BME280;21627;48.216;16.482;2023-02-19T06:31:29;99775.34;;;9.44;100.00
35519;BME280;21627;48.216;16.482;2023-02-19T06:33:57;99784.84;;;9.49;100.00
35519;BME280;21627;48.216;16.482;2023-02-19T06:36:24;99779.72;;;9.52;100.00
35519;BME280;21627;48.216;16.482;2023-02-19T06:38:51;99784.03;;;9.61;100.00
35519;BME280;21627;48.216;16.482;2023-02-19T06:41:19;99775.41;;;9.53;100.00
35519;BME280;21627;48.216;16.482;2023-02-19T06:43:49;99772.00;;;9.66;100.00
35519;BME280;21627;48.216;16.482;2023-02-19T06:46:16;99786.66;;;9.66;100.00
35519;BME280;21627;48.216;16.482;2023-02-19T06:48:44;99785.81;;;9.74;100.00
35519;BME280;21627;48.216;16.482;2023-02-19T06:51:15;99779.78;;;9.80;100.00
35519;BME280;21627;48.216;16.482;2023-02-19T06:53:45;99803.13;;;9.99;100.00
35519;BME280;21627;48.216;16.482;2023-02-19T06:56:32;99784.19;;;10.09;100.00
35519;BME280;21627;48.216;16.482;2023-02-19T06:59:02;99778.19;;;10.14;100.00
35519;BME280;21627;48.216;16.482;2023-02-19T07:01:32;99782.50;;;10.22;100.00
35519;BME280;21627;48.216;16.482;2023-02-19T07:04:00;99798.03;;;10.28;100.00
35519;BME280;21627;48.216;16.482;2023-02-19T07:06:28;99804.13;;;10.44;100.00
35519;BME280;21627;48.216;16.482;2023-02-19T07:08:57;99792.06;;;10.52;100.00
35519;BME280;21627;48.216;16.482;2023-02-19T07:11:27;99793.78;;;10.54;100.00
35519;BME280;21627;48.216;16.482;2023-02-19T07:13:59;99780.84;;;10.51;100.00
35519;BME280;21627;48.216;16.482;2023-02-19T07:16:27;99780.00;;;10.46;100.00
35519;BME280;21627;48.216;16.482;2023-02-19T07:18:58;99768.78;;;10.50;100.00
35519;BME280;21627;48.216;16.482;2023-02-19T07:21:27;99780.84;;;10.59;100.00
35519;BME280;21627;48.216;16.482;2023-02-19T07:23:55;99796.38;;;10.67;100.00
35519;BME280;21627;48.216;16.482;2023-02-19T07:26:26;99799.81;;;10.72;100.00
35519;BME280;21627;48.216;16.482;2023-02-19T07:28:53;99781.72;;;10.64;100.00
35519;BME280;21627;48.216;16.482;2023-02-19T07:31:22;99786.88;;;10.73;100.00
35519;BME280;21627;48.216;16.482;2023-02-19T07:33:51;99793.78;;;10.77;100.00
35519;BME280;21627;48.216;16.482;2023-02-19T07:36:19;99761.88;;;10.68;100.00
35519;BME280;21627;48.216;16.482;2023-02-19T07:38:51;99793.78;;;10.91;100.00
35519;BME280;21627;48.216;16.482;2023-02-19T07:41:22;99782.59;;;10.86;100.00
35519;BME280;21627;48.216;16.482;2023-02-19T07:43:49;99778.25;;;10.93;100.00
35519;BME280;21627;48.216;16.482;2023-02-19T07:46:16;99788.59;;;11.00;100.00
35519;BME280;21627;48.216;16.482;2023-02-19T07:48:44;99786.84;;;11.10;100.00
35519;BME280;21627;48.216;16.482;2023-02-19T07:51:15;99749.78;;;10.97;100.00
35519;BME280;21627;48.216;16.482;2023-02-19T07:53:46;99780.81;;;11.00;100.00
35519;BME280;21627;48.216;16.482;2023-02-19T07:56:13;99786.88;;;11.04;100.00
35519;BME280;21627;48.216;16.482;2023-02-19T07:58:41;99771.34;;;11.04;100.00
35519;BME280;21627;48.216;16.482;2023-02-19T08:01:22;99792.88;;;11.11;100.00
35519;BME280;21627;48.216;16.482;2023-02-19T08:04:12;99792.91;;;11.08;100.00
35519;BME280;21627;48.216;16.482;2023-02-19T08:06:43;99778.22;;;11.03;100.00
35519;BME280;21627;48.216;16.482;2023-02-19T08:09:11;99791.19;;;10.99;100.00
35519;BME280;21627;48.216;16.482;2023-02-19T08:11:38;99792.91;;;11.03;100.00
35519;BME280;21627;48.216;16.482;2023-02-19T08:14:26;99814.47;;;11.19;100.00
35519;BME280;21627;48.216;16.482;2023-02-19T08:16:53;99786.88;;;11.16;100.00
35519;BME280;21627;48.216;16.482;2023-02-19T08:19:21;99804.91;;;11.33;100.00
35519;BME280;21627;48.216;16.482;2023-02-19T08:21:52;99819.59;;;11.33;100.00
35519;BME280;21627;48.216;16.482;2023-02-19T08:24:19;99817.00;;;11.36;100.00
35519;BME280;21627;48.216;16.482;2023-02-19T08:26:47;99832.53;;;11.28;100.00
35519;BME280;21627;48.216;16.482;2023-02-19T08:29:14;99829.09;;;11.32;100.00
35519;BME280;21627;48.216;16.482;2023-02-19T08:31:41;99829.06;;;11.41;100.00
35519;BME280;21627;48.216;16.482;2023-02-19T08:34:08;99822.16;;;11.36;100.00
35519;BME280;21627;48.216;16.482;2023-02-19T08:36:37;99833.38;;;11.45;100.00
35519;BME280;21627;48.216;16.482;2023-02-19T08:39:04;99817.88;;;11.39;100.00
35519;BME280;21627;48.216;16.482;2023-02-19T08:41:32;99813.53;;;11.41;100.00
35519;BME280;21627;48.216;16.482;2023-02-19T08:43:59;99829.91;;;11.48;100.00
35519;BME280;21627;48.216;16.482;2023-02-19T08:46:26;99825.59;;;11.52;100.00
35519;BME280;21627;48.216;16.482;2023-02-19T08:48:53;99817.84;;;11.42;100.00
35519;BME280;21627;48.216;16.482;2023-02-19T08:51:21;99822.16;;;11.54;100.00
35519;BME280;21627;48.216;16.482;2023-02-19T08:53:48;99838.47;;;11.68;100.00
35519;BME280;21627;48.216;16.482;2023-02-19T08:56:16;99829.91;;;11.62;100.00
35519;BME280;21627;48.216;16.482;2023-02-19T08:58:44;99819.56;;;11.50;100.00
35519;BME280;21627;48.216;16.482;2023-02-19T09:01:15;99835.94;;;11.48;100.00
35519;BME280;21627;48.216;16.482;2023-02-19T09:03:44;99835.13;;;11.33;100.00
35519;BME280;21627;48.216;16.482;2023-02-19T09:06:17;99842.91;;;11.25;100.00
35519;BME280;21627;48.216;16.482;2023-02-19T09:08:45;99837.75;;;11.22;100.00
35519;BME280;21627;48.216;16.482;2023-02-19T09:11:13;99842.91;;;11.08;100.00
35519;BME280;21627;48.216;16.482;2023-02-19T09:13:41;99848.09;;;11.05;100.00
35519;BME280;21627;48.216;16.482;2023-02-19T09:16:12;99836.88;;;11.06;100.00
35519;BME280;21627;48.216;16.482;2023-02-19T09:18:40;99829.97;;;11.05;100.00
35519;BME280;21627;48.216;16.482;2023-02-19T09:21:07;99829.97;;;11.16;100.00
35519;BME280;21627;48.216;16.482;2023-02-19T09:23:36;99829.09;;;11.29;100.00
35519;BME280;21627;48.216;16.482;2023-02-19T09:26:04;99833.38;;;11.55;100.00
35519;BME280;21627;48.216;16.482;2023-02-19T09:28:37;99837.63;;;11.68;100.00
35519;BME280;21627;48.216;16.482;2023-02-19T09:31:13;99833.28;;;11.79;100.00
35519;BME280;21627;48.216;16.482;2023-02-19T09:33:43;99830.69;;;11.82;100.00
35519;BME280;21627;48.216;16.482;2023-02-19T09:36:13;99807.38;;;11.78;100.00
35519;BME280;21627;48.216;16.482;2023-02-19T09:38:41;99796.03;;;12.12;100.00
35519;BME280;21627;48.216;16.482;2023-02-19T09:43:47;99817.19;;;12.76;97.06
35519;BME280;21627;48.216;16.482;2023-02-19T09:46:21;99810.03;;;13.06;92.55
35519;BME280;21627;48.216;16.482;2023-02-19T09:48:52;99793.41;;;13.27;91.99
35519;BME280;21627;48.216;16.482;2023-02-19T09:51:21;99807.75;;;13.60;87.98
35519;BME280;21627;48.216;16.482;2023-02-19T09:53:58;99815.38;;;13.75;87.80
35519;BME280;21627;48.216;16.482;2023-02-19T09:56:29;99798.06;;;13.76;85.71
35519;BME280;21627;48.216;16.482;2023-02-19T09:58:58;99803.06;;;13.90;83.68
35519;BME280;21627;48.216;16.482;2023-02-19T10:01:33;99782.84;;;14.12;84.44
35519;BME280;21627;48.216;16.482;2023-02-19T10:04:09;99787.06;;;14.20;79.78
35519;BME280;21627;48.216;16.482;2023-02-19T10:06:37;99780.03;;;14.25;78.60
35519;BME280;21627;48.216;16.482;2023-02-19T10:09:22;99784.22;;;14.36;75.77
35519;BME280;21627;48.216;16.482;2023-02-19T10:11:55;99791.03;;;14.44;74.70
35519;BME280;21627;48.216;16.482;2023-02-19T10:14:38;99792.69;;;14.50;73.60
35519;BME280;21627;48.216;16.482;2023-02-19T10:17:41;99785.66;;;14.58;70.77
35519;BME280;21627;48.216;16.482;2023-02-19T10:20:08;99789.09;;;14.59;70.42
35519;BME280;21627;48.216;16.482;2023-02-19T10:22:42;99792.38;;;14.71;69.99
35519;BME280;21627;48.216;16.482;2023-02-19T10:25:14;99800.03;;;14.82;67.94
35519;BME280;21627;48.216;16.482;2023-02-19T10:27:43;99791.44;;;14.77;67.80
35519;BME280;21627;48.216;16.482;2023-02-19T10:30:23;99798.28;;;14.81;66.48
35519;BME280;21627;48.216;16.482;2023-02-19T10:33:18;99783.50;;;14.83;67.16
35519;BME280;21627;48.216;16.482;2023-02-19T10:36:03;99793.72;;;14.94;66.88
35519;BME280;21627;48.216;16.482;2023-02-19T10:38:38;99792.00;;;14.95;67.25
35519;BME280;21627;48.216;16.482;2023-02-19T10:41:12;99799.69;;;15.02;65.34
35519;BME280;21627;48.216;16.482;2023-02-19T10:46:42;99800.88;;;15.32;64.93
35519;BME280;21627;48.216;16.482;2023-02-19T10:49:37;99796.44;;;15.36;63.03
35519;BME280;21627;48.216;16.482;2023-02-19T10:52:20;99800.53;;;15.51;62.64
35519;BME280;21627;48.216;16.482;2023-02-19T10:54:55;99797.59;;;15.68;63.39
35519;BME280;21627;48.216;16.482;2023-02-19T10:57:29;99795.78;;;15.73;61.70
35519;BME280;21627;48.216;16.482;2023-02-19T11:02:43;99786.97;;;16.17;61.58
35519;BME280;21627;48.216;16.482;2023-02-19T11:05:18;99784.75;;;16.39;60.24
35519;BME280;21627;48.216;16.482;2023-02-19T11:07:55;99788.38;;;16.70;59.80
35519;BME280;21627;48.216;16.482;2023-02-19T11:10:37;99789.22;;;16.70;55.95
35519;BME280;21627;48.216;16.482;2023-02-19T11:13:14;99792.28;;;16.89;57.21
35519;BME280;21627;48.216;16.482;2023-02-19T11:15:43;99784.16;;;17.00;54.20
35519;BME280;21627;48.216;16.482;2023-02-19T11:18:26;99765.78;;;17.04;54.67
35519;BME280;21627;48.216;16.482;2023-02-19T11:21:03;99780.09;;;17.22;55.17
35519;BME280;21627;48.216;16.482;2023-02-19T11:23:42;99766.53;;;17.08;52.67
35519;BME280;21627;48.216;16.482;2023-02-19T11:26:24;99763.66;;;17.19;53.01
35519;BME280;21627;48.216;16.482;2023-02-19T11:28:58;99772.66;;;17.40;52.75
35519;BME280;21627;48.216;16.482;2023-02-19T11:31:32;99765.13;;;17.29;51.59
35519;BME280;21627;48.216;16.482;2023-02-19T11:36:43;99778.63;;;16.78;53.43
35519;BME280;21627;48.216;16.482;2023-02-19T11:39:19;99794.78;;;16.94;53.05
35519;BME280;21627;48.216;16.482;2023-02-19T11:51:33;99779.22;;;15.74;57.11
35519;BME280;21627;48.216;16.482;2023-02-19T11:54:15;99787.25;;;15.62;59.26
35519;BME280;21627;48.216;16.482;2023-02-19T11:57:00;99788.91;;;15.22;59.26
35519;BME280;21627;48.216;16.482;2023-02-19T11:59:46;99796.13;;;15.06;62.15
35519;BME280;21627;48.216;16.482;2023-02-19T12:05:22;99818.03;;;14.37;74.79
35519;BME280;21627;48.216;16.482;2023-02-19T12:32:13;99835.00;;;11.76;100.00
35519;BME280;21627;48.216;16.482;2023-02-19T12:38:25;99834.13;;;11.95;100.00
35519;BME280;21627;48.216;16.482;2023-02-19T12:46:44;99807.31;;;12.02;100.00
35519;BME280;21627;48.216;16.482;2023-02-19T12:49:36;99804.59;;;12.25;100.00
35519;BME280;21627;48.216;16.482;2023-02-19T12:52:17;99801.84;;;12.50;100.00
35519;BME280;21627;48.216;16.482;2023-02-19T12:54:55;99819.06;;;12.57;93.68
35519;BME280;21627;48.216;16.482;2023-02-19T12:57:34;99795.63;;;12.69;90.91
35519;BME280;21627;48.216;16.482;2023-02-19T13:00:41;99788.56;;;12.88;85.61
35519;BME280;21627;48.216;16.482;2023-02-19T13:09:00;99808.44;;;12.89;82.86
35519;BME280;21627;48.216;16.482;2023-02-19T13:11:43;99785.22;;;12.72;82.22
35519;BME280;21627;48.216;16.482;2023-02-19T13:20:36;99810.81;;;13.14;85.07
35519;BME280;21627;48.216;16.482;2023-02-19T13:23:29;99800.72;;;13.70;79.29
35519;BME280;21627;48.216;16.482;2023-02-19T13:26:41;99784.22;;;13.74;74.38
35519;BME280;21627;48.216;16.482;2023-02-19T13:29:25;99788.22;;;13.99;71.06
35519;BME280;21627;48.216;16.482;2023-02-19T13:32:38;99781.75;;;14.28;67.59
35519;BME280;21627;48.216;16.482;2023-02-19T13:38:12;99765.16;;;14.91;63.33
35519;BME280;21627;48.216;16.482;2023-02-19T13:40:51;99780.63;;;15.00;61.86
35519;BME280;21627;48.216;16.482;2023-02-19T13:43:35;99785.91;;;14.96;63.27
35519;BME280;21627;48.216;16.482;2023-02-19T13:46:09;99796.47;;;14.86;62.65
35519;BME280;21627;48.216;16.482;2023-02-19T13:48:39;99786.75;;;14.98;60.91
35519;BME280;21627;48.216;16.482;2023-02-19T13:53:59;99820.13;;;14.73;63.16
35519;BME280;21627;48.216;16.482;2023-02-19T13:59:35;99845.25;;;14.10;69.53
35519;BME280;21627;48.216;16.482;2023-02-19T14:02:09;99844.97;;;13.60;71.24
35519;BME280;21627;48.216;16.482;2023-02-19T14:05:07;99872.13;;;13.33;75.42
35519;BME280;21627;48.216;16.482;2023-02-19T14:10:55;99876.88;;;12.74;87.77
35519;BME280;21627;48.216;16.482;2023-02-19T14:16:49;99892.00;;;11.74;100.00
35519;BME280;21627;48.216;16.482;2023-02-19T14:26:06;99873.09;;;10.92;100.00
35519;BME280;21627;48.216;16.482;2023-02-19T14:28:45;99884.31;;;10.79;100.00
35519;BME280;21627;48.216;16.482;2023-02-19T14:31:29;99893.78;;;10.66;100.00
35519;BME280;21627;48.216;16.482;2023-02-19T14:34:28;99938.56;;;10.60;100.00
35519;BME280;21627;48.216;16.482;2023-02-19T14:36:59;99932.53;;;10.51;100.00
35519;BME280;21627;48.216;16.482;2023-02-19T14:39:48;99930.72;;;10.34;100.00
35519;BME280;21627;48.216;16.482;2023-02-19T14:42:26;99937.56;;;10.25;100.00
35519;BME280;21627;48.216;16.482;2023-02-19T14:45:04;99935.75;;;10.10;100.00
35519;BME280;21627;48.216;16.482;2023-02-19T14:47:33;99934.06;;;10.12;100.00
35519;BME280;21627;48.216;16.482;2023-02-19T14:50:30;99939.19;;;10.04;100.00
35519;BME280;21627;48.216;16.482;2023-02-19T14:53:08;99941.75;;;10.03;100.00
35519;BME280;21627;48.216;16.482;2023-02-19T14:55:42;99940.03;;;10.08;100.00
35519;BME280;21627;48.216;16.482;2023-02-19T14:58:33;99942.63;;;10.02;100.00
35519;BME280;21627;48.216;16.482;2023-02-19T15:01:03;99949.53;;;10.07;100.00
35519;BME280;21627;48.216;16.482;2023-02-19T15:03:36;99959.00;;;10.10;100.00
35519;BME280;21627;48.216;16.482;2023-02-19T15:06:10;99939.19;;;10.04;100.00
35519;BME280;21627;48.216;16.482;2023-02-19T15:08:51;99953.00;;;10.11;100.00
35519;BME280;21627;48.216;16.482;2023-02-19T15:11:25;99955.53;;;10.08;100.00
35519;BME280;21627;48.216;16.482;2023-02-19T15:14:06;99958.16;;;10.12;100.00
35519;BME280;21627;48.216;16.482;2023-02-19T15:16:39;99956.44;;;10.10;100.00
35519;BME280;21627;48.216;16.482;2023-02-19T15:19:08;99949.50;;;10.03;100.00
35519;BME280;21627;48.216;16.482;2023-02-19T15:21:46;99954.75;;;10.16;100.00
35519;BME280;21627;48.216;16.482;2023-02-19T15:24:17;99971.97;;;10.16;100.00